sensor_id;sensor_type;location;lat;lon;timestamp;pressure;altitude;pressure_sealevel;temperature;humidity
55373;BME280;41249;47.838;16.490;2022-08-04T00:01:17;99233.22;;;17.52;56.04
55373;BME280;41249;47.838;16.490;2022-08-04T00:03:51;99241.63;;;17.37;57.64
55373;BME280;41249;47.838;16.490;2022-08-04T00:06:33;99242.59;;;17.24;59.19
55373;BME280;41249;47.838;16.490;2022-08-04T00:09:09;99247.03;;;17.06;59.79
55373;BME280;41249;47.838;16.490;2022-08-04T00:11:42;99242.22;;;17.14;58.79
55373;BME280;41249;47.838;16.490;2022-08-04T00:14:13;99240.19;;;17.16;60.53
55373;BME280;41249;47.838;16.490;2022-08-04T00:16:42;99241.09;;;17.28;58.51
55373;BME280;41249;47.838;16.490;2022-08-04T00:19:16;99242.91;;;17.35;58.47
55373;BME280;41249;47.838;16.490;2022-08-04T00:21:55;99237.50;;;16.78;64.58
55373;BME280;41249;47.838;16.490;2022-08-04T00:24:24;99240.06;;;16.66;66.12
55373;BME280;41249;47.838;16.490;2022-08-04T00:26:54;99250.63;;;16.93;63.77
55373;BME280;41249;47.838;16.490;2022-08-04T00:29:21;99239.41;;;17.02;62.85
55373;BME280;41249;47.838;16.490;2022-08-04T00:31:49;99248.59;;;16.88;62.68
55373;BME280;41249;47.838;16.490;2022-08-04T00:34:25;99251.47;;;16.87;62.93
55373;BME280;41249;47.838;16.490;2022-08-04T00:36:54;99248.09;;;16.73;62.73
55373;BME280;41249;47.838;16.490;2022-08-04T00:39:21;99242.09;;;17.09;60.79
55373;BME280;41249;47.838;16.490;2022-08-04T00:42:24;99243.56;;;16.98;61.09
55373;BME280;41249;47.838;16.490;2022-08-04T00:53:30;99244.03;;;16.57;62.57
55373;BME280;41249;47.838;16.490;2022-08-04T00:56:30;99249.66;;;16.49;62.83
55373;BME280;41249;47.838;16.490;2022-08-04T01:02:24;99241.25;;;16.39;63.26
55373;BME280;41249;47.838;16.490;2022-08-04T01:05:51;99246.03;;;16.37;63.42
55373;BME280;41249;47.838;16.490;2022-08-04T01:11:03;99243.16;;;16.18;65.10
55373;BME280;41249;47.838;16.490;2022-08-04T01:16:44;99246.50;;;16.07;66.06
55373;BME280;41249;47.838;16.490;2022-08-04T01:22:24;99243.47;;;15.90;67.07
55373;BME280;41249;47.838;16.490;2022-08-04T01:30:32;99232.00;;;16.28;64.49
55373;BME280;41249;47.838;16.490;2022-08-04T01:33:08;99233.78;;;15.83;67.70
55373;BME280;41249;47.838;16.490;2022-08-04T01:35:55;99237.66;;;16.00;67.15
55373;BME280;41249;47.838;16.490;2022-08-04T01:41:02;99229.25;;;15.90;66.85
55373;BME280;41249;47.838;16.490;2022-08-04T01:43:32;99231.91;;;15.90;67.43
55373;BME280;41249;47.838;16.490;2022-08-04T01:46:02;99232.00;;;16.21;65.54
55373;BME280;41249;47.838;16.490;2022-08-04T01:48:30;99227.91;;;16.12;66.27
55373;BME280;41249;47.838;16.490;2022-08-04T01:51:02;99232.88;;;16.15;66.31
55373;BME280;41249;47.838;16.490;2022-08-04T01:53:31;99229.31;;;16.21;66.11
55373;BME280;41249;47.838;16.490;2022-08-04T01:56:00;99228.31;;;16.23;66.17
55373;BME280;41249;47.838;16.490;2022-08-04T01:58:29;99227.44;;;16.35;65.79
55373;BME280;41249;47.838;16.490;2022-08-04T02:01:01;99228.88;;;16.38;65.64
55373;BME280;41249;47.838;16.490;2022-08-04T02:03:35;99223.78;;;16.30;66.67
55373;BME280;41249;47.838;16.490;2022-08-04T02:07:27;99233.75;;;15.96;70.67
55373;BME280;41249;47.838;16.490;2022-08-04T02:10:02;99221.72;;;16.18;71.50
55373;BME280;41249;47.838;16.490;2022-08-04T02:18:04;99231.50;;;15.93;77.08
55373;BME280;41249;47.838;16.490;2022-08-04T02:20:43;99237.03;;;15.98;79.13
55373;BME280;41249;47.838;16.490;2022-08-04T02:26:00;99244.53;;;15.70;82.71
55373;BME280;41249;47.838;16.490;2022-08-04T02:31:35;99235.88;;;15.81;85.99
55373;BME280;41249;47.838;16.490;2022-08-04T02:34:12;99240.63;;;15.79;86.04
55373;BME280;41249;47.838;16.490;2022-08-04T02:36:42;99238.56;;;15.68;86.76
55373;BME280;41249;47.838;16.490;2022-08-04T02:39:10;99241.69;;;15.58;87.23
55373;BME280;41249;47.838;16.490;2022-08-04T02:41:38;99235.91;;;15.54;90.07
55373;BME280;41249;47.838;16.490;2022-08-04T02:44:09;99241.50;;;15.53;94.20
55373;BME280;41249;47.838;16.490;2022-08-04T02:46:37;99226.84;;;15.55;93.72
55373;BME280;41249;47.838;16.490;2022-08-04T02:49:06;99230.16;;;15.51;95.68
55373;BME280;41249;47.838;16.490;2022-08-04T02:51:35;99228.72;;;15.48;98.49
55373;BME280;41249;47.838;16.490;2022-08-04T02:54:04;99228.31;;;15.51;99.35
55373;BME280;41249;47.838;16.490;2022-08-04T02:56:33;99228.50;;;15.43;99.48
55373;BME280;41249;47.838;16.490;2022-08-04T02:59:13;99227.06;;;15.54;100.00
55373;BME280;41249;47.838;16.490;2022-08-04T03:01:40;99229.34;;;15.50;100.00
55373;BME280;41249;47.838;16.490;2022-08-04T03:04:34;99221.91;;;15.59;100.00
55373;BME280;41249;47.838;16.490;2022-08-04T03:10:42;99220.88;;;15.53;100.00
55373;BME280;41249;47.838;16.490;2022-08-04T03:13:34;99224.81;;;15.44;100.00
55373;BME280;41249;47.838;16.490;2022-08-04T03:30:10;99228.28;;;15.05;100.00
55373;BME280;41249;47.838;16.490;2022-08-04T03:46:50;99234.25;;;14.87;100.00
55373;BME280;41249;47.838;16.490;2022-08-04T03:55:41;99248.91;;;14.37;100.00
55373;BME280;41249;47.838;16.490;2022-08-04T04:31:42;99256.06;;;14.91;100.00
55373;BME280;41249;47.838;16.490;2022-08-04T04:34:23;99263.09;;;15.11;100.00
55373;BME280;41249;47.838;16.490;2022-08-04T04:37:01;99256.09;;;15.17;100.00
55373;BME280;41249;47.838;16.490;2022-08-04T04:43:38;99263.91;;;15.19;100.00
55373;BME280;41249;47.838;16.490;2022-08-04T04:46:42;99263.31;;;15.17;100.00
55373;BME280;41249;47.838;16.490;2022-08-04T04:51:50;99264.75;;;15.59;100.00
55373;BME280;41249;47.838;16.490;2022-08-04T04:59:55;99271.75;;;15.80;100.00
55373;BME280;41249;47.838;16.490;2022-08-04T05:06:09;99273.34;;;16.01;100.00
55373;BME280;41249;47.838;16.490;2022-08-04T05:09:02;99264.25;;;16.08;100.00
55373;BME280;41249;47.838;16.490;2022-08-04T05:14:09;99269.13;;;16.38;100.00
55373;BME280;41249;47.838;16.490;2022-08-04T05:17:03;99260.28;;;16.31;100.00
55373;BME280;41249;47.838;16.490;2022-08-04T05:19:52;99262.13;;;16.68;100.00
55373;BME280;41249;47.838;16.490;2022-08-04T05:22:30;99259.44;;;17.00;100.00
55373;BME280;41249;47.838;16.490;2022-08-04T05:25:26;99266.34;;;17.21;98.73
55373;BME280;41249;47.838;16.490;2022-08-04T05:28:05;99268.94;;;17.34;99.77
55373;BME280;41249;47.838;16.490;2022-08-04T05:30:40;99261.66;;;17.60;96.32
55373;BME280;41249;47.838;16.490;2022-08-04T05:33:24;99268.56;;;17.74;98.51
55373;BME280;41249;47.838;16.490;2022-08-04T05:35:58;99273.03;;;17.87;96.43
55373;BME280;41249;47.838;16.490;2022-08-04T05:38:48;99267.03;;;18.03;96.78
55373;BME280;41249;47.838;16.490;2022-08-04T05:41:17;99260.69;;;18.16;87.87
55373;BME280;41249;47.838;16.490;2022-08-04T05:43:45;99262.75;;;18.50;83.69
55373;BME280;41249;47.838;16.490;2022-08-04T05:46:14;99263.34;;;18.71;81.66
55373;BME280;41249;47.838;16.490;2022-08-04T05:48:44;99264.09;;;18.89;80.05
55373;BME280;41249;47.838;16.490;2022-08-04T05:51:11;99270.72;;;19.17;77.69
55373;BME280;41249;47.838;16.490;2022-08-04T05:53:39;99275.19;;;19.23;76.73
55373;BME280;41249;47.838;16.490;2022-08-04T05:56:12;99275.59;;;19.38;74.18
55373;BME280;41249;47.838;16.490;2022-08-04T05:58:40;99275.13;;;19.41;73.05
55373;BME280;41249;47.838;16.490;2022-08-04T06:01:08;99273.94;;;19.37;72.38
55373;BME280;41249;47.838;16.490;2022-08-04T06:03:37;99272.19;;;19.43;70.69
55373;BME280;41249;47.838;16.490;2022-08-04T06:06:05;99273.50;;;19.64;70.93
55373;BME280;41249;47.838;16.490;2022-08-04T06:08:32;99266.81;;;19.78;68.69
55373;BME280;41249;47.838;16.490;2022-08-04T06:11:03;99269.63;;;19.60;65.89
55373;BME280;41249;47.838;16.490;2022-08-04T06:13:42;99277.69;;;19.83;64.49
55373;BME280;41249;47.838;16.490;2022-08-04T06:16:20;99284.03;;;20.00;62.98
55373;BME280;41249;47.838;16.490;2022-08-04T06:19:03;99280.41;;;19.95;62.92
55373;BME280;41249;47.838;16.490;2022-08-04T06:21:53;99283.13;;;20.07;60.43
55373;BME280;41249;47.838;16.490;2022-08-04T06:24:23;99288.25;;;19.96;59.79
55373;BME280;41249;47.838;16.490;2022-08-04T06:26:52;99282.25;;;20.18;59.50
55373;BME280;41249;47.838;16.490;2022-08-04T06:29:20;99279.88;;;20.33;57.97
55373;BME280;41249;47.838;16.490;2022-08-04T06:32:17;99274.25;;;20.75;58.67
55373;BME280;41249;47.838;16.490;2022-08-04T06:35:05;99274.91;;;20.82;57.31
55373;BME280;41249;47.838;16.490;2022-08-04T06:37:35;99269.25;;;20.55;54.22
55373;BME280;41249;47.838;16.490;2022-08-04T06:40:13;99263.53;;;20.80;54.65
55373;BME280;41249;47.838;16.490;2022-08-04T06:42:59;99266.25;;;20.80;55.74
55373;BME280;41249;47.838;16.490;2022-08-04T06:45:27;99269.78;;;20.69;55.86
55373;BME280;41249;47.838;16.490;2022-08-04T06:47:55;99273.03;;;20.71;57.50
55373;BME280;41249;47.838;16.490;2022-08-04T06:50:23;99275.75;;;20.99;58.85
55373;BME280;41249;47.838;16.490;2022-08-04T06:53:10;99281.28;;;21.38;57.10
55373;BME280;41249;47.838;16.490;2022-08-04T06:55:39;99264.00;;;21.22;56.21
55373;BME280;41249;47.838;16.490;2022-08-04T06:58:06;99266.28;;;21.64;56.61
55373;BME280;41249;47.838;16.490;2022-08-04T07:00:35;99273.31;;;21.65;54.15
55373;BME280;41249;47.838;16.490;2022-08-04T07:03:04;99265.63;;;21.74;54.90
55373;BME280;41249;47.838;16.490;2022-08-04T07:05:33;99273.84;;;21.45;54.81
55373;BME280;41249;47.838;16.490;2022-08-04T07:08:00;99271.38;;;21.60;54.78
55373;BME280;41249;47.838;16.490;2022-08-04T07:10:28;99267.91;;;21.82;54.29
55373;BME280;41249;47.838;16.490;2022-08-04T07:12:57;99268.81;;;21.71;53.29
55373;BME280;41249;47.838;16.490;2022-08-04T07:15:25;99268.16;;;21.80;53.30
55373;BME280;41249;47.838;16.490;2022-08-04T07:17:54;99266.69;;;22.55;51.23
55373;BME280;41249;47.838;16.490;2022-08-04T07:20:27;99262.19;;;22.39;49.43
55373;BME280;41249;47.838;16.490;2022-08-04T07:23:02;99267.19;;;22.08;51.11
55373;BME280;41249;47.838;16.490;2022-08-04T07:25:29;99261.22;;;22.28;50.29
55373;BME280;41249;47.838;16.490;2022-08-04T07:28:18;99262.94;;;22.12;49.77
55373;BME280;41249;47.838;16.490;2022-08-04T07:30:46;99271.31;;;22.11;49.25
55373;BME280;41249;47.838;16.490;2022-08-04T07:33:15;99266.78;;;22.65;48.95
55373;BME280;41249;47.838;16.490;2022-08-04T07:35:42;99266.34;;;22.73;47.30
55373;BME280;41249;47.838;16.490;2022-08-04T07:38:30;99263.56;;;22.90;47.25
55373;BME280;41249;47.838;16.490;2022-08-04T07:40:59;99260.28;;;22.88;46.00
55373;BME280;41249;47.838;16.490;2022-08-04T07:43:26;99263.09;;;23.30;44.97
55373;BME280;41249;47.838;16.490;2022-08-04T07:45:53;99261.41;;;23.24;44.71
55373;BME280;41249;47.838;16.490;2022-08-04T07:48:20;99260.97;;;23.33;43.78
55373;BME280;41249;47.838;16.490;2022-08-04T07:50:49;99259.22;;;23.21;44.30
55373;BME280;41249;47.838;16.490;2022-08-04T07:53:17;99264.09;;;23.24;44.43
55373;BME280;41249;47.838;16.490;2022-08-04T07:56:04;99258.00;;;23.34;42.34
55373;BME280;41249;47.838;16.490;2022-08-04T07:58:31;99260.00;;;23.49;44.10
55373;BME280;41249;47.838;16.490;2022-08-04T08:00:58;99261.31;;;23.89;43.82
55373;BME280;41249;47.838;16.490;2022-08-04T08:03:26;99259.22;;;23.91;42.70
55373;BME280;41249;47.838;16.490;2022-08-04T08:05:53;99257.94;;;24.08;42.04
55373;BME280;41249;47.838;16.490;2022-08-04T08:08:40;99258.13;;;23.92;40.22
55373;BME280;41249;47.838;16.490;2022-08-04T08:11:07;99258.22;;;24.12;38.45
55373;BME280;41249;47.838;16.490;2022-08-04T08:13:35;99258.81;;;24.24;37.71
55373;BME280;41249;47.838;16.490;2022-08-04T08:16:02;99258.22;;;24.12;38.09
55373;BME280;41249;47.838;16.490;2022-08-04T08:18:30;99261.94;;;24.58;39.21
55373;BME280;41249;47.838;16.490;2022-08-04T08:20:57;99247.00;;;24.56;37.39
55373;BME280;41249;47.838;16.490;2022-08-04T08:23:25;99258.97;;;24.75;36.39
55373;BME280;41249;47.838;16.490;2022-08-04T08:25:52;99254.72;;;25.25;36.70
55373;BME280;41249;47.838;16.490;2022-08-04T08:28:18;99259.88;;;25.16;36.21
55373;BME280;41249;47.838;16.490;2022-08-04T08:30:45;99255.53;;;25.15;36.02
55373;BME280;41249;47.838;16.490;2022-08-04T08:33:19;99255.16;;;24.61;36.50
55373;BME280;41249;47.838;16.490;2022-08-04T08:35:52;99255.75;;;24.78;36.97
55373;BME280;41249;47.838;16.490;2022-08-04T08:58:41;99247.06;;;25.58;37.72
55373;BME280;41249;47.838;16.490;2022-08-04T09:01:57;99249.75;;;25.63;37.14
55373;BME280;41249;47.838;16.490;2022-08-04T09:13:03;99248.63;;;25.94;35.96
55373;BME280;41249;47.838;16.490;2022-08-04T09:15:44;99245.97;;;26.49;35.92
55373;BME280;41249;47.838;16.490;2022-08-04T09:23:48;99235.97;;;26.83;33.76
55373;BME280;41249;47.838;16.490;2022-08-04T09:29:26;99239.22;;;27.20;34.02
55373;BME280;41249;47.838;16.490;2022-08-04T09:34:57;99239.69;;;27.32;33.39
55373;BME280;41249;47.838;16.490;2022-08-04T09:37:45;99235.44;;;27.74;33.46
55373;BME280;41249;47.838;16.490;2022-08-04T09:40:20;99238.63;;;27.86;31.98
55373;BME280;41249;47.838;16.490;2022-08-04T09:43:34;99233.66;;;27.88;32.16
55373;BME280;41249;47.838;16.490;2022-08-04T09:49:22;99226.53;;;27.39;32.20
55373;BME280;41249;47.838;16.490;2022-08-04T09:57:20;99222.25;;;27.81;32.23
55373;BME280;41249;47.838;16.490;2022-08-04T10:00:04;99226.69;;;27.77;32.53
55373;BME280;41249;47.838;16.490;2022-08-04T10:02:58;99209.81;;;28.41;31.43
55373;BME280;41249;47.838;16.490;2022-08-04T10:08:50;99207.63;;;28.95;31.26
55373;BME280;41249;47.838;16.490;2022-08-04T10:20:13;99187.16;;;28.92;29.91
55373;BME280;41249;47.838;16.490;2022-08-04T10:23:11;99202.78;;;28.54;30.11
55373;BME280;41249;47.838;16.490;2022-08-04T10:28:34;99184.09;;;28.61;29.86
55373;BME280;41249;47.838;16.490;2022-08-04T10:31:07;99186.91;;;28.89;29.90
55373;BME280;41249;47.838;16.490;2022-08-04T10:33:49;99178.50;;;28.66;28.92
55373;BME280;41249;47.838;16.490;2022-08-04T10:36:23;99179.06;;;28.68;29.45
55373;BME280;41249;47.838;16.490;2022-08-04T10:39:06;99172.84;;;29.14;30.63
55373;BME280;41249;47.838;16.490;2022-08-04T10:42:10;99175.53;;;28.82;29.40
55373;BME280;41249;47.838;16.490;2022-08-04T10:44:54;99173.03;;;28.66;29.33
55373;BME280;41249;47.838;16.490;2022-08-04T10:47:34;99174.59;;;28.72;29.85
55373;BME280;41249;47.838;16.490;2022-08-04T10:50:04;99167.00;;;29.35;29.44
55373;BME280;41249;47.838;16.490;2022-08-04T10:52:47;99168.97;;;29.48;29.59
55373;BME280;41249;47.838;16.490;2022-08-04T10:55:30;99163.78;;;29.74;28.88
55373;BME280;41249;47.838;16.490;2022-08-04T10:58:22;99165.59;;;29.65;29.04
55373;BME280;41249;47.838;16.490;2022-08-04T11:01:18;99175.94;;;29.68;29.22
55373;BME280;41249;47.838;16.490;2022-08-04T11:04:16;99161.97;;;28.77;28.85
55373;BME280;41249;47.838;16.490;2022-08-04T11:06:54;99173.28;;;28.51;28.61
55373;BME280;41249;47.838;16.490;2022-08-04T11:09:21;99151.59;;;28.73;29.79
55373;BME280;41249;47.838;16.490;2022-08-04T11:11:53;99153.44;;;29.57;29.41
55373;BME280;41249;47.838;16.490;2022-08-04T11:17:46;99144.19;;;30.08;28.96
55373;BME280;41249;47.838;16.490;2022-08-04T11:23:07;99151.63;;;29.94;28.88
55373;BME280;41249;47.838;16.490;2022-08-04T11:30:52;99144.28;;;30.03;28.16
55373;BME280;41249;47.838;16.490;2022-08-04T11:39:34;99150.16;;;30.10;29.01
55373;BME280;41249;47.838;16.490;2022-08-04T11:44:42;99133.28;;;30.53;27.66
55373;BME280;41249;47.838;16.490;2022-08-04T11:47:21;99138.00;;;30.38;28.50
55373;BME280;41249;47.838;16.490;2022-08-04T11:50:00;99138.53;;;30.27;27.40
55373;BME280;41249;47.838;16.490;2022-08-04T11:52:29;99132.81;;;30.37;28.77
55373;BME280;41249;47.838;16.490;2022-08-04T11:54:58;99118.69;;;30.07;27.86
55373;BME280;41249;47.838;16.490;2022-08-04T11:57:28;99118.41;;;30.45;28.23
55373;BME280;41249;47.838;16.490;2022-08-04T12:00:04;99122.56;;;30.65;28.75
55373;BME280;41249;47.838;16.490;2022-08-04T12:05:18;99105.34;;;29.78;26.60
55373;BME280;41249;47.838;16.490;2022-08-04T12:13:49;99107.94;;;30.33;28.41
55373;BME280;41249;47.838;16.490;2022-08-04T12:16:35;99095.84;;;30.34;28.03
55373;BME280;41249;47.838;16.490;2022-08-04T12:19:21;99102.75;;;30.46;27.21
55373;BME280;41249;47.838;16.490;2022-08-04T12:21:53;99100.13;;;30.27;28.24
55373;BME280;41249;47.838;16.490;2022-08-04T12:25:07;99095.84;;;30.34;27.35
55373;BME280;41249;47.838;16.490;2022-08-04T12:27:52;99099.09;;;30.36;27.53
55373;BME280;41249;47.838;16.490;2022-08-04T12:30:19;99089.56;;;30.34;27.58
55373;BME280;41249;47.838;16.490;2022-08-04T12:33:24;99095.28;;;30.24;27.32
55373;BME280;41249;47.838;16.490;2022-08-04T12:39:09;99092.41;;;30.65;27.97
55373;BME280;41249;47.838;16.490;2022-08-04T12:44:48;99086.69;;;29.53;28.75
55373;BME280;41249;47.838;16.490;2022-08-04T12:47:24;99076.47;;;29.45;28.68
55373;BME280;41249;47.838;16.490;2022-08-04T12:49:59;99078.06;;;29.46;29.43
55373;BME280;41249;47.838;16.490;2022-08-04T12:52:30;99088.97;;;30.01;28.71
55373;BME280;41249;47.838;16.490;2022-08-04T12:55:22;99081.88;;;30.00;27.67
55373;BME280;41249;47.838;16.490;2022-08-04T12:57:50;99083.13;;;30.16;27.99
55373;BME280;41249;47.838;16.490;2022-08-04T13:00:32;99083.78;;;30.13;28.16
55373;BME280;41249;47.838;16.490;2022-08-04T13:03:14;99082.50;;;30.19;28.40
55373;BME280;41249;47.838;16.490;2022-08-04T13:05:43;99079.75;;;30.19;27.79
55373;BME280;41249;47.838;16.490;2022-08-04T13:08:12;99061.97;;;30.30;27.80
55373;BME280;41249;47.838;16.490;2022-08-04T13:10:41;99071.47;;;30.47;28.46
55373;BME280;41249;47.838;16.490;2022-08-04T13:13:19;99064.53;;;29.91;28.42
55373;BME280;41249;47.838;16.490;2022-08-04T13:16:02;99056.03;;;30.37;28.53
55373;BME280;41249;47.838;16.490;2022-08-04T13:18:39;99052.13;;;30.07;27.77
55373;BME280;41249;47.838;16.490;2022-08-04T13:21:16;99053.84;;;30.03;28.50
55373;BME280;41249;47.838;16.490;2022-08-04T13:24:05;99060.91;;;30.18;28.74
55373;BME280;41249;47.838;16.490;2022-08-04T13:26:58;99055.63;;;30.44;28.13
55373;BME280;41249;47.838;16.490;2022-08-04T13:29:33;99052.91;;;30.44;28.01
55373;BME280;41249;47.838;16.490;2022-08-04T13:32:22;99056.81;;;30.51;28.42
55373;BME280;41249;47.838;16.490;2022-08-04T13:34:54;99054.03;;;30.43;27.78
55373;BME280;41249;47.838;16.490;2022-08-04T13:37:24;99053.91;;;30.79;29.34
55373;BME280;41249;47.838;16.490;2022-08-04T13:39:53;99046.34;;;30.53;27.46
55373;BME280;41249;47.838;16.490;2022-08-04T13:42:23;99043.06;;;30.43;28.16
55373;BME280;41249;47.838;16.490;2022-08-04T13:44:59;99037.22;;;29.99;27.64
55373;BME280;41249;47.838;16.490;2022-08-04T13:47:32;99041.59;;;30.00;27.17
55373;BME280;41249;47.838;16.490;2022-08-04T13:52:39;99033.03;;;30.02;28.78
55373;BME280;41249;47.838;16.490;2022-08-04T13:55:07;99026.59;;;30.43;28.52
55373;BME280;41249;47.838;16.490;2022-08-04T13:57:43;99030.91;;;30.66;27.68
55373;BME280;41249;47.838;16.490;2022-08-04T14:00:11;99025.69;;;30.56;27.77
55373;BME280;41249;47.838;16.490;2022-08-04T14:03:04;99022.09;;;30.47;27.78
55373;BME280;41249;47.838;16.490;2022-08-04T14:05:29;99015.25;;;29.77;27.76
55373;BME280;41249;47.838;16.490;2022-08-04T14:08:25;99008.75;;;30.09;27.92
55373;BME280;41249;47.838;16.490;2022-08-04T14:10:57;99014.59;;;30.38;28.00
55373;BME280;41249;47.838;16.490;2022-08-04T14:13:31;99015.19;;;30.49;27.89
55373;BME280;41249;47.838;16.490;2022-08-04T14:16:20;99010.91;;;29.98;27.86
55373;BME280;41249;47.838;16.490;2022-08-04T14:18:57;99004.78;;;30.15;27.23
55373;BME280;41249;47.838;16.490;2022-08-04T14:21:24;99008.88;;;30.26;27.60
55373;BME280;41249;47.838;16.490;2022-08-04T14:23:54;99008.22;;;30.21;27.43
55373;BME280;41249;47.838;16.490;2022-08-04T14:26:30;98997.38;;;29.79;27.67
55373;BME280;41249;47.838;16.490;2022-08-04T14:29:11;99005.31;;;30.26;27.55
55373;BME280;41249;47.838;16.490;2022-08-04T14:32:03;99001.16;;;30.51;27.10
55373;BME280;41249;47.838;16.490;2022-08-04T14:34:41;99003.63;;;30.61;27.31
55373;BME280;41249;47.838;16.490;2022-08-04T14:37:13;98999.53;;;30.81;26.93
55373;BME280;41249;47.838;16.490;2022-08-04T14:39:49;98998.00;;;30.97;26.93
55373;BME280;41249;47.838;16.490;2022-08-04T14:42:45;99002.41;;;30.45;26.99
55373;BME280;41249;47.838;16.490;2022-08-04T14:47:55;99004.56;;;30.87;27.02
55373;BME280;41249;47.838;16.490;2022-08-04T14:50:42;99002.38;;;31.07;27.22
55373;BME280;41249;47.838;16.490;2022-08-04T14:53:20;98997.03;;;31.59;26.87
55373;BME280;41249;47.838;16.490;2022-08-04T14:55:50;98994.53;;;31.31;26.28
55373;BME280;41249;47.838;16.490;2022-08-04T14:58:21;98999.38;;;31.26;26.46
55373;BME280;41249;47.838;16.490;2022-08-04T15:01:09;98994.19;;;31.24;26.70
55373;BME280;41249;47.838;16.490;2022-08-04T15:03:40;98990.19;;;31.30;26.35
55373;BME280;41249;47.838;16.490;2022-08-04T15:06:23;98994.06;;;31.29;26.59
55373;BME280;41249;47.838;16.490;2022-08-04T15:08:53;98993.94;;;31.43;26.17
55373;BME280;41249;47.838;16.490;2022-08-04T15:11:21;98995.50;;;31.35;26.18
55373;BME280;41249;47.838;16.490;2022-08-04T15:13:54;98995.50;;;31.27;26.24
55373;BME280;41249;47.838;16.490;2022-08-04T15:16:24;98998.56;;;31.25;26.60
55373;BME280;41249;47.838;16.490;2022-08-04T15:18:51;98997.53;;;31.04;26.23
55373;BME280;41249;47.838;16.490;2022-08-04T15:21:23;98998.19;;;31.09;26.02
55373;BME280;41249;47.838;16.490;2022-08-04T15:23:51;98983.59;;;31.40;25.51
55373;BME280;41249;47.838;16.490;2022-08-04T15:26:25;98993.41;;;31.32;25.87
55373;BME280;41249;47.838;16.490;2022-08-04T15:29:04;98991.47;;;31.33;26.38
55373;BME280;41249;47.838;16.490;2022-08-04T15:31:36;98982.88;;;31.17;25.92
55373;BME280;41249;47.838;16.490;2022-08-04T15:34:24;98978.50;;;30.76;26.05
55373;BME280;41249;47.838;16.490;2022-08-04T15:36:52;98973.47;;;30.70;26.52
55373;BME280;41249;47.838;16.490;2022-08-04T15:39:43;98973.25;;;30.88;26.28
55373;BME280;41249;47.838;16.490;2022-08-04T15:42:14;98967.06;;;30.74;26.19
55373;BME280;41249;47.838;16.490;2022-08-04T15:47:17;98977.31;;;30.91;26.28
55373;BME280;41249;47.838;16.490;2022-08-04T15:49:44;98974.78;;;31.12;26.82
55373;BME280;41249;47.838;16.490;2022-08-04T15:52:14;98970.75;;;31.18;26.21
55373;BME280;41249;47.838;16.490;2022-08-04T15:54:44;98965.75;;;31.29;26.13
55373;BME280;41249;47.838;16.490;2022-08-04T15:57:57;98969.84;;;30.52;26.54
55373;BME280;41249;47.838;16.490;2022-08-04T16:00:25;98963.13;;;30.35;26.63
55373;BME280;41249;47.838;16.490;2022-08-04T16:02:52;98964.63;;;30.42;26.80
55373;BME280;41249;47.838;16.490;2022-08-04T16:08:12;98958.69;;;30.48;26.37
55373;BME280;41249;47.838;16.490;2022-08-04T16:10:41;98961.38;;;30.40;26.59
55373;BME280;41249;47.838;16.490;2022-08-04T16:13:17;98965.69;;;30.63;26.60
55373;BME280;41249;47.838;16.490;2022-08-04T16:15:56;98969.72;;;30.57;26.56
55373;BME280;41249;47.838;16.490;2022-08-04T16:21:02;98969.09;;;31.00;26.75
55373;BME280;41249;47.838;16.490;2022-08-04T16:37:19;98968.41;;;30.85;26.03
55373;BME280;41249;47.838;16.490;2022-08-04T16:39:46;98966.28;;;30.82;26.08
55373;BME280;41249;47.838;16.490;2022-08-04T16:42:30;98959.41;;;30.94;26.30
55373;BME280;41249;47.838;16.490;2022-08-04T16:50:15;98952.66;;;30.37;25.94
55373;BME280;41249;47.838;16.490;2022-08-04T16:52:44;98956.53;;;30.36;26.36
55373;BME280;41249;47.838;16.490;2022-08-04T16:55:14;98953.66;;;30.42;26.33
55373;BME280;41249;47.838;16.490;2022-08-04T16:57:45;98956.34;;;30.33;26.61
55373;BME280;41249;47.838;16.490;2022-08-04T17:00:12;98953.59;;;30.33;26.48
55373;BME280;41249;47.838;16.490;2022-08-04T17:02:39;98958.63;;;30.40;26.28
55373;BME280;41249;47.838;16.490;2022-08-04T17:05:19;98957.81;;;30.39;25.86
55373;BME280;41249;47.838;16.490;2022-08-04T17:08:07;98952.81;;;30.10;26.57
55373;BME280;41249;47.838;16.490;2022-08-04T17:10:54;98948.84;;;29.94;26.50
55373;BME280;41249;47.838;16.490;2022-08-04T17:16:16;98954.31;;;29.94;26.98
55373;BME280;41249;47.838;16.490;2022-08-04T17:18:52;98948.84;;;29.58;26.27
55373;BME280;41249;47.838;16.490;2022-08-04T17:21:22;98946.34;;;29.47;26.55
55373;BME280;41249;47.838;16.490;2022-08-04T17:23:51;98959.34;;;29.42;26.72
55373;BME280;41249;47.838;16.490;2022-08-04T17:26:39;98951.34;;;29.04;27.11
55373;BME280;41249;47.838;16.490;2022-08-04T17:29:07;98954.94;;;28.91;27.43
55373;BME280;41249;47.838;16.490;2022-08-04T17:31:36;98957.53;;;28.55;27.83
55373;BME280;41249;47.838;16.490;2022-08-04T17:34:10;98951.94;;;28.13;28.17
55373;BME280;41249;47.838;16.490;2022-08-04T17:36:42;98957.81;;;27.88;28.61
55373;BME280;41249;47.838;16.490;2022-08-04T17:39:19;98957.13;;;27.58;29.13
55373;BME280;41249;47.838;16.490;2022-08-04T17:41:55;98960.19;;;27.38;29.39
55373;BME280;41249;47.838;16.490;2022-08-04T17:44:43;98953.19;;;27.27;29.75
55373;BME280;41249;47.838;16.490;2022-08-04T17:47:18;98959.50;;;27.03;30.25
55373;BME280;41249;47.838;16.490;2022-08-04T17:49:45;98960.84;;;26.82;30.83
55373;BME280;41249;47.838;16.490;2022-08-04T17:52:19;98961.56;;;26.64;30.92
55373;BME280;41249;47.838;16.490;2022-08-04T17:55:07;98959.63;;;26.40;31.35
55373;BME280;41249;47.838;16.490;2022-08-04T17:57:46;98955.41;;;26.24;31.73
55373;BME280;41249;47.838;16.490;2022-08-04T18:00:18;98955.06;;;25.96;32.60